Terminal Aerodrome Forecast
Issued by NWS

Home | Current Version | Previous Version | Graphics & Text | Print | Product List | Glossary On
Versions: 1 2 3 4 5 6 7 8 9 10 11 12 13 14
914
FTUS43 KBIS 252324
TAFJMS
TAF
KJMS 252324Z 2600/2624 26007KT P6SM SCT080
     FM261600 21008KT P6SM SCT200
     FM262100 21012KT P6SM BKN130=

USA.gov is the U.S. government's official web portal to all federal, state and local government web resources and services.